createdAt,value
2022-12-01T00:01:15.900Z,38.38
2022-12-01T00:03:43.055Z,37.60
2022-12-01T00:06:18.031Z,38.30
2022-12-01T00:09:06.161Z,33.70
2022-12-01T00:11:34.555Z,37.67
2022-12-01T00:14:01.694Z,35.70
2022-12-01T00:16:28.748Z,35.65
2022-12-01T00:18:56.135Z,33.22
2022-12-01T00:21:24.567Z,31.83
2022-12-01T00:23:53.791Z,36.05
2022-12-01T00:26:21.781Z,34.92
2022-12-01T00:28:52.827Z,37.97
2022-12-01T00:31:20.235Z,35.60
2022-12-01T00:33:46.963Z,35.75
2022-12-01T00:36:14.096Z,35.95
2022-12-01T00:38:41.063Z,36.95
2022-12-01T00:41:07.822Z,33.45
2022-12-01T00:43:34.696Z,37.08
2022-12-01T00:46:01.521Z,34.08
2022-12-01T00:48:28.283Z,33.90
2022-12-01T00:50:55.844Z,36.53
2022-12-01T00:53:23.015Z,37.80
2022-12-01T00:55:49.746Z,35.83
2022-12-01T00:58:16.584Z,33.13
2022-12-01T01:00:43.263Z,38.05
2022-12-01T01:03:11.012Z,38.58
2022-12-01T01:05:39.282Z,32.78
2022-12-01T01:08:13.245Z,34.90
2022-12-01T01:10:41.757Z,39.03
2022-12-01T01:13:09.053Z,36.97
2022-12-01T01:15:36.273Z,33.22
2022-12-01T01:18:04.039Z,43.50
2022-12-01T01:20:31.522Z,40.08
2022-12-01T01:22:58.366Z,35.60
2022-12-01T01:25:25.275Z,37.60
2022-12-01T01:27:51.961Z,34.78
2022-12-01T01:30:18.799Z,37.42
2022-12-01T01:32:45.524Z,34.72
2022-12-01T01:35:12.183Z,40.55
2022-12-01T01:37:38.875Z,40.13
2022-12-01T01:40:06.484Z,36.58
2022-12-01T01:42:33.246Z,38.17
2022-12-01T01:44:59.975Z,38.03
2022-12-01T01:47:39.668Z,34.67
2022-12-01T01:50:12.781Z,35.83
2022-12-01T01:52:44.903Z,39.35
2022-12-01T01:55:13.350Z,40.25
2022-12-01T01:57:40.620Z,31.77
2022-12-01T02:00:07.977Z,38.00
2022-12-01T02:02:40.760Z,36.03
2022-12-01T02:05:11.081Z,37.85
2022-12-01T02:07:41.977Z,37.47
2022-12-01T02:10:12.860Z,41.90
2022-12-01T02:13:04.412Z,37.25
2022-12-01T02:15:52.843Z,33.78
2022-12-01T02:18:42.321Z,39.50
2022-12-01T02:21:23.994Z,35.80
2022-12-01T02:24:18.764Z,39.30
2022-12-01T02:26:52.523Z,34.65
2022-12-01T02:29:41.778Z,35.42
2022-12-01T02:32:42.358Z,35.03
2022-12-01T02:35:16.590Z,35.20
2022-12-01T02:38:00.244Z,35.97
2022-12-01T02:40:29.294Z,34.88
2022-12-01T02:43:05.827Z,37.35
2022-12-01T02:45:40.792Z,39.10
2022-12-01T02:48:25.123Z,35.53
2022-12-01T02:50:53.745Z,38.28
2022-12-01T02:53:21.774Z,34.85
2022-12-01T02:55:57.647Z,37.75
2022-12-01T02:58:24.854Z,37.08
2022-12-01T03:01:00.568Z,41.65
2022-12-01T03:03:39.737Z,36.60
2022-12-01T03:06:41.268Z,44.05
2022-12-01T03:09:33.824Z,39.55
2022-12-01T03:12:21.449Z,43.05
2022-12-01T03:15:23.347Z,39.55
2022-12-01T03:17:59.341Z,40.50
2022-12-01T03:20:39.553Z,45.05
2022-12-01T03:23:10.380Z,43.58
2022-12-01T03:25:40.077Z,43.83
2022-12-01T03:28:24.589Z,42.67
2022-12-01T03:30:55.729Z,42.67
2022-12-01T03:33:35.240Z,42.38
2022-12-01T03:36:08.841Z,43.00
2022-12-01T03:38:37.520Z,47.28
2022-12-01T03:41:14.781Z,45.05
2022-12-01T03:43:47.997Z,45.97
2022-12-01T03:46:35.200Z,46.92
2022-12-01T03:49:03.731Z,45.30
2022-12-01T03:51:50.733Z,43.88
2022-12-01T03:54:33.679Z,44.35
2022-12-01T03:57:05.763Z,45.60
2022-12-01T03:59:36.020Z,44.95
2022-12-01T04:02:03.037Z,42.08
2022-12-01T04:04:29.799Z,42.42
2022-12-01T04:06:56.437Z,45.78
2022-12-01T04:09:23.096Z,43.00
2022-12-01T04:12:25.306Z,43.05
2022-12-01T04:14:52.035Z,43.20
2022-12-01T04:17:19.083Z,44.40
2022-12-01T04:19:45.813Z,44.45
2022-12-01T04:22:12.673Z,38.60
2022-12-01T04:24:39.565Z,44.25
2022-12-01T04:27:06.284Z,40.75
2022-12-01T04:29:33.023Z,38.28
2022-12-01T04:31:59.738Z,38.08
2022-12-01T04:34:26.519Z,39.75
2022-12-01T04:36:53.231Z,45.03
2022-12-01T04:39:19.908Z,42.10
2022-12-01T04:41:46.655Z,37.00
2022-12-01T04:44:14.809Z,39.85
2022-12-01T04:46:41.653Z,42.92
2022-12-01T04:49:09.061Z,38.70
2022-12-01T04:51:36.475Z,40.28
2022-12-01T04:54:03.659Z,38.88
2022-12-01T04:56:30.320Z,43.95
2022-12-01T04:58:58.972Z,43.17
2022-12-01T05:01:25.858Z,38.85
2022-12-01T05:03:52.917Z,41.85
2022-12-01T05:06:22.878Z,39.55
2022-12-01T05:08:50.376Z,40.95
2022-12-01T05:11:18.110Z,40.20
2022-12-01T05:13:47.122Z,45.67
2022-12-01T05:16:18.581Z,37.78
2022-12-01T05:19:16.326Z,37.92
2022-12-01T05:21:44.529Z,38.17
2022-12-01T05:24:13.026Z,41.40
2022-12-01T05:26:40.856Z,42.17
2022-12-01T05:29:08.208Z,41.78
2022-12-01T05:31:35.314Z,35.78
2022-12-01T05:34:02.660Z,33.38
2022-12-01T05:36:29.461Z,39.55
2022-12-01T05:38:56.198Z,44.65
2022-12-01T05:41:22.880Z,41.05
2022-12-01T05:43:49.559Z,40.75
2022-12-01T05:46:16.461Z,39.72
2022-12-01T05:48:43.382Z,42.92
2022-12-01T05:51:12.569Z,41.22
2022-12-01T05:53:39.614Z,42.95
2022-12-01T05:56:07.197Z,36.85
2022-12-01T05:58:34.413Z,45.20
2022-12-01T06:01:01.678Z,41.92
2022-12-01T06:03:28.374Z,39.10
2022-12-01T06:05:55.161Z,45.92
2022-12-01T06:08:21.894Z,38.28
2022-12-01T06:10:48.697Z,39.75
2022-12-01T06:13:15.720Z,41.67
2022-12-01T06:15:42.491Z,44.03
2022-12-01T06:18:09.713Z,46.33
2022-12-01T06:20:36.470Z,39.75
2022-12-01T06:23:03.527Z,40.83
2022-12-01T06:25:30.225Z,41.67
2022-12-01T06:27:58.466Z,44.00
2022-12-01T06:30:26.499Z,42.08
2022-12-01T06:32:53.351Z,47.60
2022-12-01T06:35:20.452Z,37.92
2022-12-01T06:37:47.315Z,39.60
2022-12-01T06:40:14.217Z,38.88
2022-12-01T06:42:41.188Z,42.08
2022-12-01T06:45:08.420Z,41.40
2022-12-01T06:47:35.092Z,41.80
2022-12-01T06:50:02.213Z,37.80
2022-12-01T06:52:28.982Z,37.83
2022-12-01T06:54:55.706Z,41.28
2022-12-01T06:57:22.735Z,43.63
2022-12-01T06:59:49.746Z,41.45
2022-12-01T07:02:17.364Z,38.08
2022-12-01T07:04:44.075Z,39.53
2022-12-01T07:07:12.151Z,44.42
2022-12-01T07:09:39.376Z,38.67
2022-12-01T07:12:06.797Z,40.67
2022-12-01T07:14:33.627Z,40.35
2022-12-01T07:17:00.423Z,40.05
2022-12-01T07:19:27.406Z,48.28
2022-12-01T07:21:54.164Z,36.00
2022-12-01T07:24:20.890Z,39.80
2022-12-01T07:26:48.258Z,42.00
2022-12-01T07:29:14.984Z,45.30
2022-12-01T07:31:41.749Z,46.22
2022-12-01T07:34:12.197Z,48.58
2022-12-01T07:39:07.585Z,43.42
2022-12-01T07:41:34.904Z,43.30
2022-12-01T07:44:02.312Z,40.60
2022-12-01T07:46:29.458Z,49.63
2022-12-01T07:48:57.021Z,60.15
2022-12-01T07:51:25.366Z,43.45
2022-12-01T07:53:53.356Z,43.08
2022-12-01T07:56:21.120Z,40.17
2022-12-01T07:58:48.229Z,41.58
2022-12-01T08:01:18.073Z,39.47
2022-12-01T08:03:45.324Z,36.95
2022-12-01T08:06:12.356Z,38.80
2022-12-01T08:08:40.902Z,45.75
2022-12-01T08:11:16.823Z,42.13
2022-12-01T08:13:44.721Z,51.40
2022-12-01T08:16:14.703Z,49.17
2022-12-01T08:18:43.018Z,61.75
2022-12-01T08:21:12.334Z,42.40
2022-12-01T08:23:39.730Z,43.90
2022-12-01T08:26:09.395Z,41.78
2022-12-01T08:28:36.925Z,46.85
2022-12-01T08:31:15.487Z,45.53
2022-12-01T08:33:42.296Z,46.22
2022-12-01T08:36:09.599Z,46.33
2022-12-01T08:38:36.282Z,46.20
2022-12-01T08:41:08.579Z,46.95
2022-12-01T08:46:28.852Z,46.45
2022-12-01T08:48:57.429Z,49.08
2022-12-01T08:51:24.670Z,52.40
2022-12-01T08:53:51.758Z,52.38
2022-12-01T08:56:42.829Z,52.80
2022-12-01T08:59:09.673Z,53.72
2022-12-01T09:01:52.013Z,52.88
2022-12-01T09:04:28.254Z,54.00
2022-12-01T09:06:56.311Z,59.13
2022-12-01T09:09:26.494Z,58.33
2022-12-01T09:11:53.919Z,53.08
2022-12-01T09:14:22.195Z,58.45
2022-12-01T09:16:50.430Z,56.88
2022-12-01T09:19:24.287Z,55.08
2022-12-01T09:21:52.378Z,59.00
2022-12-01T09:24:19.162Z,57.95
2022-12-01T09:26:46.004Z,57.95
2022-12-01T09:29:14.748Z,60.45
2022-12-01T09:31:42.598Z,59.45
2022-12-01T09:34:15.410Z,54.28
2022-12-01T09:36:42.643Z,59.22
2022-12-01T09:39:12.827Z,58.30
2022-12-01T09:41:45.352Z,56.33
2022-12-01T09:44:15.763Z,60.95
2022-12-01T09:49:44.324Z,59.40
2022-12-01T09:52:16.577Z,58.72
2022-12-01T09:54:43.383Z,64.25
2022-12-01T09:57:40.454Z,66.20
2022-12-01T10:00:15.484Z,67.35
2022-12-01T10:03:01.427Z,56.78
2022-12-01T10:05:36.573Z,59.40
2022-12-01T10:08:07.571Z,63.20
2022-12-01T10:10:42.661Z,62.95
2022-12-01T10:13:27.112Z,65.15
2022-12-01T10:16:12.097Z,65.40
2022-12-01T10:19:24.908Z,59.97
2022-12-01T10:22:08.098Z,59.75
2022-12-01T10:24:54.925Z,67.82
2022-12-01T10:27:33.753Z,71.38
2022-12-01T10:30:12.657Z,61.88
2022-12-01T10:32:52.331Z,60.92
2022-12-01T10:35:22.606Z,72.00
2022-12-01T10:37:56.761Z,64.40
2022-12-01T10:40:24.441Z,63.60
2022-12-01T10:42:51.755Z,67.10
2022-12-01T10:45:27.532Z,67.25
2022-12-01T10:48:16.445Z,64.28
2022-12-01T10:50:45.326Z,63.55
2022-12-01T10:53:24.400Z,70.07
2022-12-01T10:56:10.993Z,60.08
2022-12-01T10:58:43.757Z,63.33
2022-12-01T11:01:19.652Z,68.50
2022-12-01T11:03:56.973Z,67.28
2022-12-01T11:06:29.432Z,63.60
2022-12-01T11:09:03.546Z,65.38
2022-12-01T11:11:39.945Z,69.05
2022-12-01T11:14:21.322Z,59.72
2022-12-01T11:16:50.334Z,65.60
2022-12-01T11:19:43.771Z,64.70
2022-12-01T11:22:25.883Z,62.20
2022-12-01T11:24:55.366Z,62.97
2022-12-01T11:27:28.767Z,63.57
2022-12-01T11:29:58.298Z,59.80
2022-12-01T11:32:34.310Z,57.87
2022-12-01T11:35:18.079Z,64.78
2022-12-01T11:38:13.205Z,62.22
2022-12-01T11:41:05.590Z,62.47
2022-12-01T11:43:34.852Z,57.50
2022-12-01T11:46:09.201Z,57.88
2022-12-01T11:48:36.703Z,61.20
2022-12-01T11:51:29.917Z,58.55
2022-12-01T11:54:26.381Z,50.15
2022-12-01T11:57:25.318Z,54.15
2022-12-01T11:59:40.906Z,52.13
2022-12-01T12:02:19.580Z,52.92
2022-12-01T12:04:58.420Z,47.53
2022-12-01T12:07:55.989Z,52.63
2022-12-01T12:11:09.410Z,51.72
2022-12-01T12:13:53.128Z,48.80
2022-12-01T12:16:45.627Z,53.83
2022-12-01T12:20:07.234Z,54.58
2022-12-01T12:23:11.493Z,50.25
2022-12-01T12:26:18.940Z,52.90
2022-12-01T12:29:33.053Z,52.53
2022-12-01T12:32:14.839Z,55.05
2022-12-01T12:34:56.426Z,51.00
2022-12-01T12:38:00.494Z,56.17
2022-12-01T12:40:36.227Z,48.55
2022-12-01T12:43:21.507Z,47.63
2022-12-01T12:46:00.616Z,42.78
2022-12-01T12:48:50.844Z,43.40
2022-12-01T12:51:37.905Z,49.63
2022-12-01T12:54:07.811Z,43.85
2022-12-01T12:56:36.455Z,48.83
2022-12-01T12:59:11.511Z,54.83
2022-12-01T13:02:28.647Z,52.03
2022-12-01T13:05:12.579Z,47.78
2022-12-01T13:07:48.663Z,50.15
2022-12-01T13:10:55.178Z,47.50
2022-12-01T13:13:32.632Z,51.20
2022-12-01T13:16:02.516Z,51.30
2022-12-01T13:18:42.042Z,47.35
2022-12-01T13:21:17.073Z,41.25
2022-12-01T13:23:46.275Z,44.10
2022-12-01T13:26:14.068Z,48.05
2022-12-01T13:28:52.990Z,44.97
2022-12-01T13:31:21.755Z,43.15
2022-12-01T13:33:58.889Z,42.53
2022-12-01T13:39:36.837Z,40.53
2022-12-01T13:42:09.280Z,41.10
2022-12-01T13:44:43.237Z,39.40
2022-12-01T13:47:09.890Z,44.47
2022-12-01T13:49:42.414Z,46.78
2022-12-01T13:52:26.043Z,46.15
2022-12-01T13:55:07.854Z,47.85
2022-12-01T13:57:37.445Z,50.10
2022-12-01T14:00:07.536Z,46.90
2022-12-01T14:02:36.416Z,43.22
2022-12-01T14:05:25.211Z,40.92
2022-12-01T14:07:53.546Z,42.97
2022-12-01T14:10:27.034Z,41.45
2022-12-01T14:12:57.700Z,44.38
2022-12-01T14:15:32.300Z,43.15
2022-12-01T14:18:18.830Z,43.65
2022-12-01T14:20:48.018Z,43.17
2022-12-01T14:23:29.173Z,39.13
2022-12-01T14:26:07.137Z,44.53
2022-12-01T14:28:59.789Z,43.75
2022-12-01T14:31:32.655Z,44.80
2022-12-01T14:34:18.948Z,47.17
2022-12-01T14:37:11.159Z,43.17
2022-12-01T14:39:43.378Z,42.10
2022-12-01T14:42:57.309Z,38.97
2022-12-01T14:45:40.600Z,43.45
2022-12-01T14:48:15.356Z,46.75
2022-12-01T14:50:49.345Z,47.45
2022-12-01T14:53:30.601Z,47.53
2022-12-01T14:56:08.357Z,55.88
2022-12-01T14:58:35.032Z,47.38
2022-12-01T15:01:08.908Z,45.08
2022-12-01T15:03:43.397Z,48.22
2022-12-01T15:06:15.950Z,47.80
2022-12-01T15:08:53.400Z,44.70
2022-12-01T15:11:32.264Z,43.30
2022-12-01T15:14:02.198Z,44.80
2022-12-01T15:16:40.324Z,43.53
2022-12-01T15:19:31.905Z,43.78
2022-12-01T15:22:02.366Z,42.00
2022-12-01T15:27:03.474Z,41.33
2022-12-01T15:29:34.769Z,40.53
2022-12-01T15:32:05.862Z,41.38
2022-12-01T15:34:37.027Z,40.30
2022-12-01T15:37:06.970Z,40.13
2022-12-01T15:39:44.013Z,41.60
2022-12-01T15:42:33.459Z,37.10
2022-12-01T15:45:03.177Z,39.25
2022-12-01T15:47:45.718Z,40.20
2022-12-01T15:50:38.674Z,37.15
2022-12-01T15:53:23.640Z,35.75
2022-12-01T15:55:57.130Z,41.53
2022-12-01T15:58:29.702Z,44.55
2022-12-01T16:01:00.360Z,44.50
2022-12-01T16:03:27.681Z,40.55
2022-12-01T16:05:55.548Z,40.08
2022-12-01T16:08:26.062Z,42.58
2022-12-01T16:11:22.045Z,42.90
2022-12-01T16:14:21.874Z,40.00
2022-12-01T16:16:51.076Z,41.22
2022-12-01T16:19:17.754Z,44.05
2022-12-01T16:21:48.702Z,39.75
2022-12-01T16:24:27.466Z,39.47
2022-12-01T16:27:01.174Z,42.08
2022-12-01T16:29:29.906Z,41.95
2022-12-01T16:32:23.418Z,39.47
2022-12-01T16:34:52.466Z,45.45
2022-12-01T16:37:19.912Z,44.28
2022-12-01T16:39:46.658Z,51.92
2022-12-01T16:42:16.804Z,42.00
2022-12-01T16:44:48.156Z,40.47
2022-12-01T16:47:24.082Z,40.63
2022-12-01T16:49:52.102Z,48.63
2022-12-01T16:52:43.572Z,47.60
2022-12-01T16:55:37.957Z,44.00
2022-12-01T16:58:05.108Z,52.08
2022-12-01T17:00:32.206Z,45.92
2022-12-01T17:02:59.548Z,51.70
2022-12-01T17:05:26.435Z,52.33
2022-12-01T17:07:53.326Z,47.38
2022-12-01T17:10:21.352Z,50.90
2022-12-01T17:12:48.158Z,49.47
2022-12-01T17:15:15.249Z,51.00
2022-12-01T17:17:42.096Z,53.72
2022-12-01T17:20:10.106Z,50.22
2022-12-01T17:22:37.148Z,52.22
2022-12-01T17:25:04.694Z,50.30
2022-12-01T17:27:32.337Z,46.50
2022-12-01T17:29:59.334Z,48.38
2022-12-01T17:32:27.423Z,46.28
2022-12-01T17:34:54.442Z,56.63
2022-12-01T17:37:21.577Z,59.95
2022-12-01T17:39:49.266Z,56.13
2022-12-01T17:42:16.427Z,52.55
2022-12-01T17:44:43.152Z,55.08
2022-12-01T17:47:09.915Z,52.22
2022-12-01T17:49:36.740Z,53.00
2022-12-01T17:52:08.200Z,56.65
2022-12-01T17:54:38.284Z,54.67
2022-12-01T17:57:06.642Z,49.67
2022-12-01T17:59:34.416Z,44.92
2022-12-01T18:02:01.181Z,46.72
2022-12-01T18:04:27.932Z,44.50
2022-12-01T18:06:54.841Z,74.93
2022-12-01T18:09:21.936Z,77.55
2022-12-01T18:11:48.925Z,62.97
2022-12-01T18:14:18.691Z,99.25
2022-12-01T18:16:45.857Z,72.85
2022-12-01T18:19:13.009Z,75.78
2022-12-01T18:21:40.226Z,71.40
2022-12-01T18:24:10.925Z,54.72
2022-12-01T18:26:40.236Z,53.85
2022-12-01T18:29:12.476Z,56.90
2022-12-01T18:31:39.410Z,62.15
2022-12-01T18:34:07.542Z,53.47
2022-12-01T18:36:37.353Z,47.45
2022-12-01T18:39:06.755Z,46.55
2022-12-01T18:41:34.582Z,44.40
2022-12-01T18:44:01.627Z,44.67
2022-12-01T18:46:29.034Z,45.08
2022-12-01T18:49:03.191Z,47.80
2022-12-01T18:51:31.555Z,50.85
2022-12-01T18:54:00.622Z,50.65
2022-12-01T18:56:28.006Z,45.45
2022-12-01T18:58:56.591Z,47.97
2022-12-01T19:01:28.719Z,43.63
2022-12-01T19:03:56.590Z,84.53
2022-12-01T19:06:24.404Z,77.82
2022-12-01T19:08:51.969Z,85.97
2022-12-01T19:11:18.841Z,49.50
2022-12-01T19:13:46.220Z,60.95
2022-12-01T19:16:18.307Z,58.10
2022-12-01T19:18:45.586Z,64.32
2022-12-01T19:21:14.658Z,57.33
2022-12-01T19:23:41.891Z,65.45
2022-12-01T19:26:12.118Z,57.20
2022-12-01T19:28:40.348Z,56.20
2022-12-01T19:31:13.135Z,53.28
2022-12-01T19:33:40.290Z,44.50
2022-12-01T19:36:09.977Z,44.20
2022-12-01T19:38:36.871Z,48.00
2022-12-01T19:41:04.238Z,99.22
2022-12-01T19:43:31.025Z,71.90
2022-12-01T19:45:57.803Z,53.90
2022-12-01T19:48:24.559Z,56.05
2022-12-01T19:50:51.197Z,57.85
2022-12-01T19:53:17.850Z,66.25
2022-12-01T19:55:44.577Z,68.38
2022-12-01T19:58:11.208Z,70.28
2022-12-01T20:00:37.951Z,88.03
2022-12-01T20:03:04.836Z,107.07
2022-12-01T20:05:32.524Z,81.32
2022-12-01T20:07:59.297Z,66.10
2022-12-01T20:10:26.076Z,51.40
2022-12-01T20:12:52.917Z,49.75
2022-12-01T20:15:19.715Z,51.72
2022-12-01T20:17:46.446Z,52.85
2022-12-01T20:20:13.446Z,54.08
2022-12-01T20:22:40.238Z,48.80
2022-12-01T20:25:07.395Z,51.85
2022-12-01T20:27:34.088Z,53.55
2022-12-01T20:30:00.769Z,51.63
2022-12-01T20:32:28.181Z,42.00
2022-12-01T20:34:54.892Z,51.97
2022-12-01T20:37:21.605Z,57.30
2022-12-01T20:39:48.333Z,57.00
2022-12-01T20:42:15.169Z,49.40
2022-12-01T20:44:41.890Z,47.17
2022-12-01T20:47:08.568Z,56.08
2022-12-01T20:49:35.230Z,47.80
2022-12-01T20:52:01.959Z,48.10
2022-12-01T20:54:30.048Z,44.25
2022-12-01T20:56:57.980Z,49.28
2022-12-01T20:59:24.780Z,44.67
2022-12-01T21:01:51.627Z,46.20
2022-12-01T21:04:18.302Z,48.35
2022-12-01T21:06:45.362Z,49.30
2022-12-01T21:09:13.204Z,46.97
2022-12-01T21:12:06.973Z,50.13
2022-12-01T21:14:42.453Z,53.55
2022-12-01T21:17:35.332Z,51.13
2022-12-01T21:20:08.904Z,50.30
2022-12-01T21:22:36.363Z,50.40
2022-12-01T21:25:12.394Z,52.00
2022-12-01T21:27:39.129Z,45.70
2022-12-01T21:30:22.008Z,52.80
2022-12-01T21:32:49.620Z,45.60
2022-12-01T21:35:27.528Z,49.25
2022-12-01T21:38:00.413Z,59.28
2022-12-01T21:40:27.553Z,59.65
2022-12-01T21:42:56.434Z,52.60
2022-12-01T21:45:28.455Z,49.63
2022-12-01T21:48:13.012Z,54.80
2022-12-01T21:50:39.701Z,50.35
2022-12-01T21:53:16.274Z,49.85
2022-12-01T21:55:46.126Z,49.20
2022-12-01T21:58:31.080Z,46.85
2022-12-01T22:00:59.383Z,51.70
2022-12-01T22:03:44.357Z,45.97
2022-12-01T22:06:35.002Z,48.35
2022-12-01T22:09:14.437Z,41.60
2022-12-01T22:11:44.779Z,42.33
2022-12-01T22:19:14.621Z,41.83
2022-12-01T22:22:03.504Z,44.88
2022-12-01T22:24:42.497Z,43.88
2022-12-01T22:27:28.455Z,40.00
2022-12-01T22:30:01.022Z,38.25
2022-12-01T22:32:32.473Z,42.88
2022-12-01T22:35:09.757Z,43.42
2022-12-01T22:38:14.336Z,39.67
2022-12-01T22:40:43.896Z,43.42
2022-12-01T22:43:16.663Z,44.33
2022-12-01T22:46:10.198Z,42.92
2022-12-01T22:48:43.199Z,47.70
2022-12-01T22:51:12.656Z,45.58
2022-12-01T22:53:40.418Z,43.23
2022-12-01T22:56:32.224Z,47.83
2022-12-01T22:58:59.096Z,49.45
2022-12-01T23:01:30.195Z,44.17
2022-12-01T23:04:29.645Z,47.42
2022-12-01T23:07:29.353Z,46.28
2022-12-01T23:10:02.935Z,44.25
2022-12-01T23:12:32.262Z,50.85
2022-12-01T23:15:39.089Z,50.58
2022-12-01T23:18:11.887Z,50.03
2022-12-01T23:20:38.928Z,49.72
2022-12-01T23:23:29.544Z,52.33
2022-12-01T23:25:56.721Z,53.13
2022-12-01T23:28:24.898Z,52.63
2022-12-01T23:30:54.372Z,56.80
2022-12-01T23:33:31.984Z,59.43
2022-12-01T23:36:02.083Z,64.03
2022-12-01T23:38:39.502Z,52.08
2022-12-01T23:41:12.493Z,55.15
2022-12-01T23:43:41.583Z,61.03
2022-12-01T23:46:12.899Z,64.05
2022-12-01T23:48:49.209Z,59.55
2022-12-01T23:51:20.321Z,65.00
2022-12-01T23:53:47.282Z,66.32
2022-12-01T23:56:19.816Z,64.30
2022-12-01T23:58:46.987Z,63.58
